createdAt,value
2022-09-06T00:01:31.962Z,101325.69
2022-09-06T00:03:59.004Z,101330.47
2022-09-06T00:06:25.845Z,101327.69
2022-09-06T00:08:52.928Z,101324.81
2022-09-06T00:11:20.142Z,101318.59
2022-09-06T00:13:48.018Z,101318.81
2022-09-06T00:16:19.326Z,101316.38
2022-09-06T00:18:46.748Z,101311.28
2022-09-06T00:21:24.188Z,101312.28
2022-09-06T00:23:52.188Z,101316.06
2022-09-06T00:26:20.061Z,101318.59
2022-09-06T00:28:47.144Z,101313.78
2022-09-06T00:31:17.142Z,101308.41
2022-09-06T00:33:44.370Z,101302.72
2022-09-06T00:36:12.580Z,101295.53
2022-09-06T00:38:40.329Z,101304.28
2022-09-06T00:41:09.511Z,101301.72
2022-09-06T00:43:37.406Z,101294.88
2022-09-06T00:46:06.127Z,101295.59
2022-09-06T00:48:33.451Z,101301.03
2022-09-06T00:51:04.098Z,101304.84
2022-09-06T00:53:32.174Z,101297.00
2022-09-06T00:55:59.415Z,101294.63
2022-09-06T00:58:27.827Z,101306.44
2022-09-06T01:00:54.784Z,101309.38
2022-09-06T01:03:25.954Z,101307.34
2022-09-06T01:06:20.339Z,101308.06
2022-09-06T01:08:59.641Z,101294.53
2022-09-06T01:11:47.983Z,101293.56
2022-09-06T01:14:45.793Z,101295.56
2022-09-06T01:17:50.759Z,101289.81
2022-09-06T01:20:47.628Z,101281.53
2022-09-06T01:23:36.413Z,101287.59
2022-09-06T01:26:17.926Z,101281.38
2022-09-06T01:28:46.759Z,101290.69
2022-09-06T01:31:25.921Z,101281.88
2022-09-06T01:34:11.998Z,101284.81
2022-09-06T01:37:06.208Z,101282.03
2022-09-06T01:39:34.798Z,101287.25
2022-09-06T01:42:19.524Z,101274.31
2022-09-06T01:44:53.733Z,101281.06
2022-09-06T01:48:02.218Z,101284.25
2022-09-06T01:50:43.889Z,101285.84
2022-09-06T01:53:22.860Z,101287.28
2022-09-06T01:56:01.618Z,101290.72
2022-09-06T01:58:47.091Z,101296.09
2022-09-06T02:02:12.750Z,101297.38
2022-09-06T02:04:47.517Z,101294.22
2022-09-06T02:07:23.435Z,101300.53
2022-09-06T02:09:55.756Z,101298.72
2022-09-06T02:12:26.994Z,101306.97
2022-09-06T02:15:07.906Z,101301.34
2022-09-06T02:17:41.543Z,101293.97
2022-09-06T02:20:23.003Z,101292.78
2022-09-06T02:22:53.303Z,101293.72
2022-09-06T02:25:37.793Z,101298.31
2022-09-06T02:28:07.121Z,101292.44
2022-09-06T02:30:43.593Z,101295.09
2022-09-06T02:33:16.928Z,101295.88
2022-09-06T02:35:46.792Z,101293.50
2022-09-06T02:38:14.143Z,101295.13
2022-09-06T02:40:41.528Z,101289.28
2022-09-06T02:43:08.994Z,101298.91
2022-09-06T02:45:35.979Z,101295.47
2022-09-06T02:48:03.248Z,101290.06
2022-09-06T02:50:30.090Z,101284.66
2022-09-06T02:53:11.800Z,101286.09
2022-09-06T02:55:39.295Z,101283.16
2022-09-06T02:58:08.333Z,101287.19
2022-09-06T03:00:35.513Z,101282.69
2022-09-06T03:03:02.498Z,101278.53
2022-09-06T03:05:30.020Z,101274.00
2022-09-06T03:07:57.888Z,101266.53
2022-09-06T03:10:26.180Z,101269.88
2022-09-06T03:12:53.429Z,101263.13
2022-09-06T03:15:20.878Z,101260.81
2022-09-06T03:17:47.822Z,101256.25
2022-09-06T03:20:15.118Z,101244.47
2022-09-06T03:22:42.622Z,101246.44
2022-09-06T03:25:10.623Z,101245.69
2022-09-06T03:27:38.035Z,101247.84
2022-09-06T03:30:06.325Z,101246.44
2022-09-06T03:32:33.816Z,101250.28
2022-09-06T03:35:00.732Z,101255.28
2022-09-06T03:37:28.086Z,101251.06
2022-09-06T03:39:55.127Z,101253.97
2022-09-06T03:42:22.179Z,101253.13
2022-09-06T03:44:49.155Z,101246.84
2022-09-06T03:47:19.425Z,101245.19
2022-09-06T03:49:47.220Z,101245.00
2022-09-06T03:52:14.762Z,101246.59
2022-09-06T03:54:41.869Z,101245.31
2022-09-06T03:57:08.959Z,101246.69
2022-09-06T03:59:36.211Z,101253.19
2022-09-06T04:02:03.720Z,101255.44
2022-09-06T04:04:30.680Z,101249.84
2022-09-06T04:06:57.600Z,101257.47
2022-09-06T04:09:24.399Z,101246.50
2022-09-06T04:11:51.615Z,101256.69
2022-09-06T04:14:18.418Z,101242.84
2022-09-06T04:16:45.630Z,101248.38
2022-09-06T04:19:12.429Z,101245.03
2022-09-06T04:21:39.624Z,101252.69
2022-09-06T04:24:06.468Z,101254.31
2022-09-06T04:26:33.686Z,101245.53
2022-09-06T04:29:00.427Z,101251.78
2022-09-06T04:31:27.576Z,101244.66
2022-09-06T04:33:54.570Z,101245.09
2022-09-06T04:36:21.424Z,101243.50
2022-09-06T04:38:48.316Z,101225.38
2022-09-06T04:41:17.552Z,101228.06
2022-09-06T04:43:44.994Z,101236.31
2022-09-06T04:46:24.972Z,101238.16
2022-09-06T04:48:53.696Z,101237.81
2022-09-06T04:51:21.024Z,101244.72
2022-09-06T04:53:48.258Z,101238.22
2022-09-06T04:56:18.371Z,101237.75
2022-09-06T04:58:47.048Z,101241.69
2022-09-06T05:01:15.020Z,101230.38
2022-09-06T05:03:42.026Z,101232.81
2022-09-06T05:06:12.132Z,101242.63
2022-09-06T05:08:40.274Z,101237.03
2022-09-06T05:11:08.463Z,101234.09
2022-09-06T05:13:35.747Z,101239.06
2022-09-06T05:16:05.326Z,101233.78
2022-09-06T05:18:32.511Z,101242.94
2022-09-06T05:20:59.461Z,101239.97
2022-09-06T05:23:27.067Z,101240.56
2022-09-06T05:25:54.430Z,101241.50
2022-09-06T05:28:21.487Z,101244.69
2022-09-06T05:30:48.432Z,101247.16
2022-09-06T05:33:21.447Z,101246.41
2022-09-06T05:35:49.404Z,101244.84
2022-09-06T05:38:16.398Z,101255.13
2022-09-06T05:40:43.529Z,101257.88
2022-09-06T05:43:10.445Z,101254.28
2022-09-06T05:45:37.332Z,101248.06
2022-09-06T05:48:04.825Z,101246.44
2022-09-06T05:50:31.594Z,101254.03
2022-09-06T05:52:58.710Z,101249.59
2022-09-06T05:55:25.780Z,101247.16
2022-09-06T05:57:52.579Z,101250.94
2022-09-06T06:00:20.051Z,101257.22
2022-09-06T06:02:50.171Z,101251.56
2022-09-06T06:05:17.283Z,101257.53
2022-09-06T06:07:44.148Z,101257.16
2022-09-06T06:10:11.261Z,101248.97
2022-09-06T06:12:38.128Z,101249.91
2022-09-06T06:15:05.986Z,101250.88
2022-09-06T06:17:33.385Z,101249.44
2022-09-06T06:20:00.290Z,101250.31
2022-09-06T06:22:27.390Z,101245.47
2022-09-06T06:24:54.238Z,101241.75
2022-09-06T06:27:21.278Z,101252.56
2022-09-06T06:29:49.016Z,101242.31
2022-09-06T06:32:15.787Z,101234.13
2022-09-06T06:34:42.690Z,101237.69
2022-09-06T06:37:09.533Z,101239.44
2022-09-06T06:39:37.216Z,101227.59
2022-09-06T06:42:04.362Z,101220.66
2022-09-06T06:44:41.308Z,101217.66
2022-09-06T06:49:41.314Z,101209.88
2022-09-06T06:52:08.092Z,101219.84
2022-09-06T06:54:35.043Z,101213.25
2022-09-06T06:57:01.977Z,101211.88
2022-09-06T06:59:28.825Z,101211.34
2022-09-06T07:01:55.852Z,101210.69
2022-09-06T07:04:23.032Z,101216.63
2022-09-06T07:12:30.485Z,101208.81
2022-09-06T07:14:57.558Z,101212.69
2022-09-06T07:17:24.328Z,101208.41
2022-09-06T07:22:38.923Z,101209.09
2022-09-06T07:25:06.874Z,101216.03
2022-09-06T07:27:49.953Z,101221.72
2022-09-06T07:30:19.433Z,101220.13
2022-09-06T07:32:46.223Z,101217.31
2022-09-06T07:35:14.287Z,101226.53
2022-09-06T07:37:41.359Z,101227.19
2022-09-06T07:40:09.005Z,101216.19
2022-09-06T07:42:36.827Z,101213.28
2022-09-06T07:45:05.284Z,101212.34
2022-09-06T07:53:14.869Z,101216.50
2022-09-06T07:55:44.751Z,101215.00
2022-09-06T07:58:11.581Z,101218.78
2022-09-06T08:00:41.431Z,101218.06
2022-09-06T08:03:08.660Z,101225.22
2022-09-06T08:11:09.923Z,101230.22
2022-09-06T08:13:37.931Z,101232.06
2022-09-06T08:16:07.437Z,101230.41
2022-09-06T08:18:35.827Z,101238.53
2022-09-06T08:21:12.986Z,101236.97
2022-09-06T08:23:51.019Z,101226.53
2022-09-06T08:26:21.067Z,101219.25
2022-09-06T08:28:48.408Z,101219.31
2022-09-06T08:31:17.585Z,101220.63
2022-09-06T08:33:44.739Z,101220.09
2022-09-06T08:36:12.081Z,101218.97
2022-09-06T08:38:38.897Z,101229.47
2022-09-06T08:41:26.448Z,101218.72
2022-09-06T08:46:54.194Z,101222.34
2022-09-06T08:49:21.526Z,101219.59
2022-09-06T08:52:06.930Z,101224.56
2022-09-06T08:55:06.091Z,101217.00
2022-09-06T08:57:50.703Z,101211.22
2022-09-06T09:00:19.521Z,101208.03
2022-09-06T09:02:49.376Z,101199.94
2022-09-06T09:05:25.833Z,101205.56
2022-09-06T09:08:05.563Z,101201.47
2022-09-06T09:10:42.403Z,101197.16
2022-09-06T09:13:36.624Z,101187.09
2022-09-06T09:16:05.287Z,101190.09
2022-09-06T09:18:40.282Z,101190.94
2022-09-06T09:21:07.205Z,101194.97
2022-09-06T09:23:33.975Z,101193.75
2022-09-06T09:26:05.747Z,101188.59
2022-09-06T09:28:32.609Z,101178.38
2022-09-06T09:30:59.784Z,101181.47
2022-09-06T09:33:39.237Z,101174.84
2022-09-06T09:36:12.998Z,101170.16
2022-09-06T09:38:53.299Z,101167.00
2022-09-06T09:41:33.488Z,101157.59
2022-09-06T09:44:06.010Z,101150.41
2022-09-06T09:46:35.226Z,101159.59
2022-09-06T09:49:02.299Z,101154.19
2022-09-06T09:51:30.894Z,101150.22
2022-09-06T09:54:04.443Z,101150.22
2022-09-06T09:56:37.196Z,101151.63
2022-09-06T09:59:15.878Z,101148.88
2022-09-06T10:01:42.963Z,101149.38
2022-09-06T10:07:25.802Z,101154.63
2022-09-06T10:10:00.701Z,101145.44
2022-09-06T10:12:30.215Z,101137.75
2022-09-06T10:14:57.936Z,101127.09
2022-09-06T10:17:33.175Z,101130.81
2022-09-06T10:20:04.097Z,101128.56
2022-09-06T10:22:36.494Z,101126.72
2022-09-06T10:25:28.638Z,101130.28
2022-09-06T10:28:28.430Z,101129.72
2022-09-06T10:31:02.513Z,101121.75
2022-09-06T10:33:35.653Z,101123.13
2022-09-06T10:36:03.854Z,101114.31
2022-09-06T10:38:46.142Z,101121.66
2022-09-06T10:41:43.205Z,101115.97
2022-09-06T10:44:42.263Z,101116.31
2022-09-06T10:47:12.765Z,101113.66
2022-09-06T10:49:45.652Z,101119.13
2022-09-06T10:52:20.046Z,101120.34
2022-09-06T10:54:47.592Z,101111.59
2022-09-06T11:00:15.820Z,101112.13
2022-09-06T11:06:11.436Z,101117.78
2022-09-06T11:08:53.290Z,101108.31
2022-09-06T11:11:35.850Z,101111.38
2022-09-06T11:14:11.853Z,101113.19
2022-09-06T11:16:47.217Z,101114.63
2022-09-06T11:19:27.446Z,101104.59
2022-09-06T11:22:21.987Z,101102.22
2022-09-06T11:25:24.696Z,101095.56
2022-09-06T11:27:58.111Z,101094.66
2022-09-06T11:30:27.067Z,101100.50
2022-09-06T11:33:35.855Z,101089.34
2022-09-06T11:36:24.253Z,101083.28
2022-09-06T11:38:57.211Z,101081.78
2022-09-06T11:41:33.577Z,101071.59
2022-09-06T11:44:01.379Z,101072.22
2022-09-06T11:46:34.392Z,101069.75
2022-09-06T11:49:16.783Z,101059.88
2022-09-06T11:51:44.814Z,101072.50
2022-09-06T11:54:15.153Z,101073.09
2022-09-06T11:57:21.495Z,101076.41
2022-09-06T11:59:52.707Z,101066.25
2022-09-06T12:02:42.366Z,101058.03
2022-09-06T12:05:15.522Z,101056.72
2022-09-06T12:08:24.034Z,101055.63
2022-09-06T12:10:59.069Z,101057.78
2022-09-06T12:13:51.732Z,101055.84
2022-09-06T12:16:18.875Z,101056.91
2022-09-06T12:18:48.867Z,101052.00
2022-09-06T12:21:39.989Z,101054.03
2022-09-06T12:24:34.639Z,101053.41
2022-09-06T12:27:20.628Z,101052.63
2022-09-06T12:29:55.091Z,101044.69
2022-09-06T12:32:26.676Z,101053.19
2022-09-06T12:38:08.490Z,101039.06
2022-09-06T12:40:41.631Z,101035.72
2022-09-06T12:43:11.788Z,101033.91
2022-09-06T12:45:44.453Z,101030.50
2022-09-06T12:48:25.539Z,101018.91
2022-09-06T12:51:19.709Z,101031.88
2022-09-06T12:53:55.807Z,101035.34
2022-09-06T12:56:24.226Z,101019.78
2022-09-06T12:58:51.427Z,101025.13
2022-09-06T13:01:26.096Z,101030.31
2022-09-06T13:04:05.627Z,101023.56
2022-09-06T13:06:39.487Z,101026.31
2022-09-06T13:09:10.984Z,101015.38
2022-09-06T13:11:42.778Z,101015.13
2022-09-06T13:14:18.103Z,101015.03
2022-09-06T13:16:48.202Z,101001.31
2022-09-06T13:19:16.392Z,100995.25
2022-09-06T13:21:45.080Z,100996.84
2022-09-06T13:24:46.805Z,100994.22
2022-09-06T13:27:24.861Z,100996.72
2022-09-06T13:30:03.139Z,100992.19
2022-09-06T13:32:30.610Z,101001.03
2022-09-06T13:34:59.846Z,100987.16
2022-09-06T13:37:29.543Z,100987.53
2022-09-06T13:39:57.854Z,100978.84
2022-09-06T13:42:29.855Z,100979.88
2022-09-06T13:45:01.909Z,100979.41
2022-09-06T13:47:30.112Z,100980.53
2022-09-06T13:49:56.946Z,100993.75
2022-09-06T13:52:23.882Z,100986.59
2022-09-06T13:54:50.938Z,100998.22
2022-09-06T13:57:23.537Z,100997.69
2022-09-06T13:59:51.404Z,101002.28
2022-09-06T14:02:20.005Z,101008.88
2022-09-06T14:04:47.376Z,101003.16
2022-09-06T14:07:14.512Z,101006.13
2022-09-06T14:09:41.480Z,101011.97
2022-09-06T14:12:09.502Z,101004.56
2022-09-06T14:14:36.615Z,101002.06
2022-09-06T14:17:03.874Z,101003.13
2022-09-06T14:19:30.863Z,100997.94
2022-09-06T14:21:57.754Z,101000.41
2022-09-06T14:24:24.866Z,101003.13
2022-09-06T14:26:52.115Z,100999.31
2022-09-06T14:29:19.345Z,100998.41
2022-09-06T14:31:48.603Z,101000.41
2022-09-06T14:34:15.470Z,101003.34
2022-09-06T14:36:42.514Z,100995.19
2022-09-06T14:39:09.354Z,100997.09
2022-09-06T14:41:36.583Z,100989.16
2022-09-06T14:44:04.061Z,100985.94
2022-09-06T14:46:31.221Z,100977.03
2022-09-06T14:49:07.352Z,100975.50
2022-09-06T14:51:35.505Z,100966.31
2022-09-06T14:54:06.915Z,100979.22
2022-09-06T14:56:35.394Z,100971.41
2022-09-06T14:59:02.331Z,100978.97
2022-09-06T15:01:37.098Z,100981.72
2022-09-06T15:04:06.720Z,100973.03
2022-09-06T15:06:37.027Z,100975.63
2022-09-06T15:09:05.478Z,100972.41
2022-09-06T15:11:39.626Z,100968.59
2022-09-06T15:14:12.430Z,100964.59
2022-09-06T15:16:39.598Z,100956.19
2022-09-06T15:19:07.915Z,100963.63
2022-09-06T15:21:34.892Z,100964.78
2022-09-06T15:24:02.690Z,100962.03
2022-09-06T15:26:30.498Z,100965.00
2022-09-06T15:28:57.592Z,100970.56
2022-09-06T15:31:24.579Z,100960.22
2022-09-06T15:33:52.116Z,100965.84
2022-09-06T15:36:19.427Z,100965.00
2022-09-06T15:38:48.882Z,100964.53
2022-09-06T15:41:19.484Z,100975.31
2022-09-06T15:43:48.528Z,100962.19
2022-09-06T15:46:18.206Z,100960.69
2022-09-06T15:48:47.104Z,100960.31
2022-09-06T15:51:17.174Z,100961.53
2022-09-06T15:53:44.845Z,100956.72
2022-09-06T15:56:15.296Z,100949.31
2022-09-06T15:58:42.293Z,100953.13
2022-09-06T16:01:17.934Z,100948.69
2022-09-06T16:03:53.003Z,100952.75
2022-09-06T16:06:26.186Z,100948.28
2022-09-06T16:09:09.459Z,100951.91
2022-09-06T16:11:37.246Z,100952.53
2022-09-06T16:14:06.799Z,100948.88
2022-09-06T16:16:35.298Z,100951.00
2022-09-06T16:19:02.770Z,100952.75
2022-09-06T16:21:32.502Z,100954.75
2022-09-06T16:24:04.321Z,100965.78
2022-09-06T16:26:34.403Z,100963.16
2022-09-06T16:29:02.404Z,100962.56
2022-09-06T16:31:30.068Z,100965.38
2022-09-06T16:33:58.159Z,100967.75
2022-09-06T16:36:25.916Z,100962.53
2022-09-06T16:38:53.103Z,100963.78
2022-09-06T16:41:25.309Z,100972.22
2022-09-06T16:43:53.385Z,100968.59
2022-09-06T16:46:23.274Z,100966.50
2022-09-06T16:48:55.627Z,100963.50
2022-09-06T16:51:25.956Z,100961.78
2022-09-06T16:53:53.783Z,100948.78
2022-09-06T16:56:23.507Z,100953.09
2022-09-06T16:58:55.955Z,100939.72
2022-09-06T17:01:24.322Z,100947.94
2022-09-06T17:03:51.882Z,100937.13
2022-09-06T17:06:19.779Z,100925.50
2022-09-06T17:08:46.777Z,100931.03
2022-09-06T17:11:20.269Z,100924.19
2022-09-06T17:13:49.763Z,100917.25
2022-09-06T17:16:36.792Z,100924.19
2022-09-06T17:19:05.065Z,100921.69
2022-09-06T17:21:32.234Z,100921.16
2022-09-06T17:24:05.243Z,100923.03
2022-09-06T17:26:34.795Z,100914.03
2022-09-06T17:29:02.048Z,100921.00
2022-09-06T17:31:29.173Z,100928.88
2022-09-06T17:36:36.625Z,100934.03
2022-09-06T17:39:14.104Z,100936.75
2022-09-06T17:41:42.867Z,100924.06
2022-09-06T17:44:15.077Z,100917.75
2022-09-06T17:46:56.919Z,100928.81
2022-09-06T17:49:24.847Z,100919.91
2022-09-06T17:51:52.263Z,100927.84
2022-09-06T17:54:19.272Z,100918.75
2022-09-06T17:56:46.458Z,100921.09
2022-09-06T17:59:15.607Z,100929.72
2022-09-06T18:01:45.533Z,100929.09
2022-09-06T18:04:13.639Z,100936.84
2022-09-06T18:06:42.558Z,100936.31
2022-09-06T18:09:12.862Z,100936.13
2022-09-06T18:11:40.246Z,100930.63
2022-09-06T18:14:10.044Z,100936.63
2022-09-06T18:16:39.227Z,100937.50
2022-09-06T18:19:08.353Z,100937.28
2022-09-06T18:21:38.944Z,100943.59
2022-09-06T18:24:06.761Z,100932.91
2022-09-06T18:26:33.618Z,100934.44
2022-09-06T18:29:00.684Z,100935.47
2022-09-06T18:31:28.574Z,100932.03
2022-09-06T18:34:00.172Z,100941.69
2022-09-06T18:36:31.791Z,100939.75
2022-09-06T18:39:04.435Z,100945.91
2022-09-06T18:41:50.427Z,100932.66
2022-09-06T18:44:18.177Z,100938.88
2022-09-06T18:46:45.592Z,100937.28
2022-09-06T18:49:15.272Z,100940.44
2022-09-06T18:51:43.216Z,100928.81
2022-09-06T18:54:11.266Z,100924.03
2022-09-06T18:56:38.754Z,100925.66
2022-09-06T18:59:07.212Z,100928.38
2022-09-06T19:01:35.405Z,100925.41
2022-09-06T19:04:03.703Z,100922.59
2022-09-06T19:06:32.759Z,100923.91
2022-09-06T19:09:02.207Z,100928.63
2022-09-06T19:11:29.559Z,100930.44
2022-09-06T19:13:58.013Z,100929.38
2022-09-06T19:16:26.900Z,100928.88
2022-09-06T19:18:56.137Z,100924.38
2022-09-06T19:21:25.629Z,100928.09
2022-09-06T19:24:01.517Z,100922.09
2022-09-06T19:26:31.733Z,100920.84
2022-09-06T19:29:01.035Z,100927.31
2022-09-06T19:31:30.884Z,100920.50
2022-09-06T19:33:58.963Z,100915.75
2022-09-06T19:36:27.900Z,100908.38
2022-09-06T19:39:05.906Z,100906.72
2022-09-06T19:41:36.831Z,100912.19
2022-09-06T19:44:06.089Z,100905.06
2022-09-06T19:46:34.997Z,100910.56
2022-09-06T19:49:02.472Z,100912.44
2022-09-06T19:51:29.341Z,100911.31
2022-09-06T19:54:02.950Z,100911.50
2022-09-06T19:56:33.397Z,100907.16
2022-09-06T19:59:07.267Z,100909.06
2022-09-06T20:01:35.733Z,100908.88
2022-09-06T20:04:05.252Z,100912.66
2022-09-06T20:06:32.431Z,100906.75
2022-09-06T20:09:01.020Z,100909.66
2022-09-06T20:11:30.654Z,100909.94
2022-09-06T20:13:57.930Z,100906.88
2022-09-06T20:16:25.474Z,100906.38
2022-09-06T20:18:54.887Z,100907.31
2022-09-06T20:21:21.933Z,100912.66
2022-09-06T20:23:54.702Z,100904.00
2022-09-06T20:26:23.932Z,100902.81
2022-09-06T20:29:01.520Z,100896.16
2022-09-06T20:31:30.565Z,100893.09
2022-09-06T20:34:00.845Z,100897.16
2022-09-06T20:36:28.496Z,100890.34
2022-09-06T20:38:55.458Z,100894.91
2022-09-06T20:41:26.851Z,100894.06
2022-09-06T20:43:59.125Z,100889.66
2022-09-06T20:46:29.129Z,100892.22
2022-09-06T20:48:58.141Z,100899.78
2022-09-06T20:51:25.588Z,100899.25
2022-09-06T20:53:56.831Z,100895.66
2022-09-06T20:56:26.707Z,100887.19
2022-09-06T20:59:00.957Z,100886.72
2022-09-06T21:01:30.844Z,100883.63
2022-09-06T21:03:59.944Z,100881.09
2022-09-06T21:06:29.299Z,100882.72
2022-09-06T21:08:57.695Z,100882.94
2022-09-06T21:11:25.027Z,100885.53
2022-09-06T21:13:55.972Z,100878.97
2022-09-06T21:16:25.449Z,100872.28
2022-09-06T21:18:54.289Z,100873.22
2022-09-06T21:21:22.440Z,100877.81
2022-09-06T21:23:49.444Z,100867.31
2022-09-06T21:26:17.292Z,100876.47
2022-09-06T21:28:46.836Z,100865.63
2022-09-06T21:31:16.270Z,100869.91
2022-09-06T21:33:48.633Z,100871.69
2022-09-06T21:36:18.146Z,100866.69
2022-09-06T21:38:47.648Z,100867.03
2022-09-06T21:41:16.879Z,100868.84
2022-09-06T21:43:45.022Z,100876.81
2022-09-06T21:46:17.704Z,100870.72
2022-09-06T21:48:47.095Z,100870.69
2022-09-06T21:51:16.523Z,100858.03
2022-09-06T21:53:45.386Z,100863.38
2022-09-06T21:56:13.124Z,100856.97
2022-09-06T21:58:40.820Z,100858.44
2022-09-06T22:01:08.390Z,100864.91
2022-09-06T22:03:41.602Z,100854.66
2022-09-06T22:06:10.804Z,100848.34
2022-09-06T22:08:38.218Z,100835.88
2022-09-06T22:11:16.332Z,100831.53
2022-09-06T22:16:19.537Z,100826.72
2022-09-06T22:18:48.942Z,100825.28
2022-09-06T22:21:20.420Z,100822.47
2022-09-06T22:23:56.138Z,100824.50
2022-09-06T22:26:24.391Z,100821.13
2022-09-06T22:28:56.870Z,100825.44
2022-09-06T22:31:25.399Z,100821.41
2022-09-06T22:33:53.128Z,100815.31
2022-09-06T22:36:20.218Z,100808.19
2022-09-06T22:38:47.300Z,100802.84
2022-09-06T22:41:14.582Z,100804.66
2022-09-06T22:43:41.383Z,100803.63
2022-09-06T22:46:10.444Z,100809.03
2022-09-06T22:48:37.711Z,100803.88
2022-09-06T22:51:06.500Z,100810.38
2022-09-06T22:53:34.104Z,100809.13
2022-09-06T22:56:01.718Z,100800.63
2022-09-06T22:58:29.082Z,100793.97
2022-09-06T23:00:56.735Z,100798.25
2022-09-06T23:03:23.909Z,100806.03
2022-09-06T23:05:50.797Z,100803.84
2022-09-06T23:08:17.869Z,100806.97
2022-09-06T23:10:44.824Z,100812.44
2022-09-06T23:13:11.864Z,100815.19
2022-09-06T23:15:40.997Z,100805.81
2022-09-06T23:18:08.587Z,100817.75
2022-09-06T23:20:37.448Z,100806.63
2022-09-06T23:23:05.457Z,100798.44
2022-09-06T23:25:32.592Z,100801.19
2022-09-06T23:28:00.404Z,100793.00
2022-09-06T23:30:27.445Z,100788.34
2022-09-06T23:32:57.263Z,100796.06
2022-09-06T23:35:24.541Z,100792.13
2022-09-06T23:37:51.772Z,100787.97
2022-09-06T23:40:19.727Z,100786.66
2022-09-06T23:42:47.269Z,100785.25
2022-09-06T23:45:14.444Z,100785.03
2022-09-06T23:47:41.719Z,100781.94
2022-09-06T23:50:09.556Z,100784.00
2022-09-06T23:52:36.447Z,100784.88
2022-09-06T23:55:04.067Z,100774.03
2022-09-06T23:57:31.126Z,100777.22
2022-09-06T23:59:57.953Z,100764.59
